Time;durP1;ratioP1;P1;durP2;ratioP2;P2;SDS_P1;SDS_P2;PMS_P1;PMS_P2;Temp;Humidity;BMP_temperature;BMP_pressure;BME280_temperature;BME280_humidity;BME280_pressure;Samples;Min_cycle;Max_cycle;Signal;HPM_P1;HPM_P2
2023/05/01 00:01:47;;;;;;;6.83;6.23;;;11.20;91.70;;;;;;6225650;28;20980;-62
2023/05/01 00:04:51;;;;;;;6.40;5.90;;;11.10;91.80;;;;;;6226426;28;20476;-61
2023/05/01 00:07:55;;;;;;;7.10;6.50;;;11.10;91.90;;;;;;6224857;28;20472;-66
2023/05/01 00:11:02;;;;;;;8.43;7.70;;;11.10;92.80;;;;;;6225386;28;20478;-66
2023/05/01 00:14:05;;;;;;;7.90;7.03;;;11.10;93.70;;;;;;6225611;28;20963;-66
2023/05/01 00:17:08;;;;;;;9.23;7.50;;;11.20;93.90;;;;;;6233278;28;20467;-65
2023/05/01 00:20:15;;;;;;;7.07;6.47;;;11.20;93.90;;;;;;6238942;28;20467;-65
2023/05/01 00:23:18;;;;;;;6.80;6.20;;;11.30;93.90;;;;;;6240818;28;20472;-65
2023/05/01 00:26:21;;;;;;;6.47;5.97;;;11.30;93.40;;;;;;6243193;28;21359;-65
2023/05/01 00:29:24;;;;;;;7.17;6.60;;;11.20;93.20;;;;;;6229246;28;20533;-65
2023/05/01 00:32:28;;;;;;;9.53;6.23;;;11.20;93.20;;;;;;6226461;28;20809;-66
2023/05/01 00:35:34;;;;;;;7.17;6.47;;;11.10;93.50;;;;;;6228837;28;20478;-66
2023/05/01 00:38:37;;;;;;;6.63;5.80;;;11.00;93.30;;;;;;6237405;28;20855;-65
2023/05/01 00:41:40;;;;;;;7.40;6.50;;;11.00;93.70;;;;;;6248979;28;20471;-65
2023/05/01 00:44:43;;;;;;;6.27;5.77;;;10.90;93.70;;;;;;6250603;28;20926;-65
2023/05/01 00:47:47;;;;;;;7.20;6.30;;;10.90;93.90;;;;;;6250772;28;20795;-65
2023/05/01 00:50:53;;;;;;;6.93;6.33;;;10.90;94.10;;;;;;6250809;28;20541;-65
2023/05/01 00:53:57;;;;;;;6.40;5.90;;;10.90;94.10;;;;;;6250872;28;20453;-65
2023/05/01 00:57:00;;;;;;;7.43;6.60;;;10.80;94.20;;;;;;6250965;28;20776;-65
2023/05/01 01:00:04;;;;;;;7.27;6.67;;;10.80;94.30;;;;;;6249459;28;21085;-66
2023/05/01 01:03:08;;;;;;;7.90;7.27;;;10.80;94.40;;;;;;6227276;28;20490;-65
2023/05/01 01:06:21;;;;;;;7.30;6.70;;;10.70;94.50;;;;;;6225368;28;20475;-66
2023/05/01 01:09:38;;;;;;;6.90;6.40;;;10.70;94.80;;;;;;6225634;28;20483;-64
2023/05/01 01:12:47;;;;;;;7.93;7.13;;;10.60;94.70;;;;;;6225319;28;20476;-66
2023/05/01 01:15:57;;;;;;;6.60;6.10;;;10.60;95.00;;;;;;6225777;28;20537;-66
2023/05/01 01:19:15;;;;;;;7.03;6.40;;;10.60;95.30;;;;;;6225482;28;20476;-66
2023/05/01 01:22:23;;;;;;;7.33;6.70;;;10.70;95.40;;;;;;6225765;28;20551;-67
2023/05/01 01:26:13;;;;;;;7.50;6.90;;;10.50;95.30;;;;;;6216727;28;20480;-67
2023/05/01 01:29:32;;;;;;;6.90;6.17;;;10.40;95.40;;;;;;6127108;28;20488;-66
2023/05/01 01:33:06;;;;;;;6.80;6.20;;;10.40;95.70;;;;;;6138168;28;20476;-66
2023/05/01 01:36:17;;;;;;;7.03;6.30;;;10.40;95.90;;;;;;6186982;28;20517;-65
2023/05/01 01:39:30;;;;;;;7.07;6.13;;;10.30;96.10;;;;;;6225974;28;20471;-65
2023/05/01 01:42:37;;;;;;;7.63;7.00;;;10.30;96.20;;;;;;6225504;28;20630;-65
2023/05/01 01:45:43;;;;;;;7.17;6.47;;;10.30;96.40;;;;;;6227029;28;20804;-65
2023/05/01 01:48:49;;;;;;;7.07;5.93;;;10.20;96.60;;;;;;6230730;28;20478;-66
2023/05/01 01:51:56;;;;;;;6.33;5.90;;;10.30;96.70;;;;;;6229595;28;20904;-66
2023/05/01 01:55:05;;;;;;;7.10;6.50;;;10.20;96.70;;;;;;6230149;28;20486;-66
2023/05/01 01:58:10;;;;;;;7.57;6.87;;;10.20;96.70;;;;;;6229877;28;20487;-66
2023/05/01 02:01:15;;;;;;;7.73;7.10;;;10.20;96.80;;;;;;6229753;28;20475;-66
2023/05/01 02:04:19;;;;;;;7.30;6.63;;;10.20;96.90;;;;;;6229209;28;20482;-66
2023/05/01 02:07:25;;;;;;;7.60;6.90;;;10.10;97.20;;;;;;6229187;28;20859;-66
2023/05/01 02:10:29;;;;;;;7.50;6.80;;;10.20;97.40;;;;;;6229381;28;20507;-66
2023/05/01 02:13:36;;;;;;;8.17;7.37;;;10.10;97.40;;;;;;6229316;28;20464;-66
2023/05/01 02:16:41;;;;;;;7.47;6.70;;;10.00;97.50;;;;;;6229077;28;20491;-66
2023/05/01 02:19:45;;;;;;;7.80;7.10;;;10.00;97.70;;;;;;6229222;28;20495;-66
2023/05/01 02:22:52;;;;;;;8.03;7.33;;;10.00;97.90;;;;;;6229020;28;20483;-66
2023/05/01 02:25:57;;;;;;;6.43;5.93;;;10.00;98.20;;;;;;6228922;28;20476;-66
2023/05/01 02:29:00;;;;;;;8.53;7.60;;;10.00;98.10;;;;;;6224645;28;20490;-66
2023/05/01 02:32:04;;;;;;;7.10;6.40;;;9.90;98.60;;;;;;6240875;28;20898;-66
2023/05/01 02:35:07;;;;;;;7.13;6.53;;;9.90;98.90;;;;;;6253552;28;20479;-66
2023/05/01 02:38:13;;;;;;;7.27;6.60;;;9.90;99.00;;;;;;6253233;28;20467;-65
2023/05/01 02:41:17;;;;;;;7.30;6.60;;;9.90;99.00;;;;;;6253365;28;20479;-66
2023/05/01 02:44:22;;;;;;;6.73;6.13;;;9.90;99.10;;;;;;6252825;28;20532;-66
2023/05/01 02:47:28;;;;;;;7.67;6.97;;;9.90;99.60;;;;;;6255795;28;20501;-66
2023/05/01 02:50:31;;;;;;;11.57;6.83;;;9.90;99.40;;;;;;6257741;28;20857;-66
2023/05/01 02:53:38;;;;;;;8.67;7.10;;;9.90;99.30;;;;;;6254605;28;20505;-66
2023/05/01 02:56:42;;;;;;;8.03;7.23;;;9.80;99.30;;;;;;6252105;28;20451;-67
2023/05/01 02:59:45;;;;;;;7.37;6.77;;;9.70;99.40;;;;;;6252801;28;20887;-65
2023/05/01 03:02:48;;;;;;;7.80;6.50;;;9.70;99.70;;;;;;6252591;28;20458;-66
2023/05/01 03:05:51;;;;;;;18.23;8.73;;;9.80;99.90;;;;;;6252556;28;20474;-66
2023/05/01 03:08:56;;;;;;;9.63;7.03;;;9.80;99.90;;;;;;6252028;28;20483;-66
2023/05/01 03:11:59;;;;;;;7.20;6.50;;;9.70;99.90;;;;;;6252756;28;20966;-67
2023/05/01 03:15:03;;;;;;;7.70;7.00;;;9.80;99.90;;;;;;6252358;28;20481;-66
2023/05/01 03:18:06;;;;;;;8.13;7.33;;;9.80;99.90;;;;;;6252091;28;20466;-66
2023/05/01 03:21:11;;;;;;;7.40;6.73;;;9.80;99.90;;;;;;6252637;28;20463;-66
2023/05/01 03:24:16;;;;;;;7.53;6.93;;;9.80;99.90;;;;;;6252311;28;20523;-66
2023/05/01 03:27:19;;;;;;;7.13;6.47;;;9.80;99.90;;;;;;6251785;28;20470;-66
2023/05/01 03:30:22;;;;;;;8.07;7.37;;;9.80;99.90;;;;;;6251534;28;20475;-66
2023/05/01 03:33:25;;;;;;;9.20;6.93;;;9.90;99.90;;;;;;6252125;28;20474;-66
2023/05/01 03:36:28;;;;;;;7.20;6.60;;;9.90;99.90;;;;;;6251756;28;20486;-66
2023/05/01 03:39:33;;;;;;;7.77;6.97;;;9.90;99.90;;;;;;6251508;28;20830;-66
2023/05/01 03:42:36;;;;;;;8.80;7.97;;;10.00;99.80;;;;;;6251803;28;20482;-66
2023/05/01 03:45:39;;;;;;;7.30;6.60;;;9.90;99.90;;;;;;6251532;28;20990;-66
2023/05/01 03:48:45;;;;;;;7.90;7.17;;;10.00;99.70;;;;;;6251331;28;20524;-66
2023/05/01 03:51:48;;;;;;;6.03;5.43;;;10.00;99.80;;;;;;6251249;28;20819;-66
2023/05/01 03:54:52;;;;;;;7.27;6.73;;;10.00;99.80;;;;;;6251316;28;20993;-66
2023/05/01 03:57:56;;;;;;;7.50;6.80;;;10.10;99.90;;;;;;6251471;28;20475;-66
2023/05/01 04:00:59;;;;;;;7.20;6.60;;;10.10;99.90;;;;;;6251798;28;20471;-66
2023/05/01 04:04:03;;;;;;;6.77;6.17;;;10.20;99.90;;;;;;6251236;28;20481;-66
2023/05/01 04:07:06;;;;;;;8.80;6.30;;;10.20;99.90;;;;;;6250872;28;20491;-66
2023/05/01 04:10:11;;;;;;;8.00;6.83;;;10.40;99.90;;;;;;6250070;28;20581;-66
2023/05/01 04:13:14;;;;;;;6.60;6.00;;;10.40;99.80;;;;;;6250637;28;20471;-66
2023/05/01 04:16:17;;;;;;;8.27;6.90;;;10.40;99.70;;;;;;6250678;28;20471;-66
2023/05/01 04:19:20;;;;;;;7.00;6.40;;;10.50;99.70;;;;;;6250835;28;20768;-66
2023/05/01 04:22:23;;;;;;;7.60;7.00;;;10.50;99.60;;;;;;6250790;28;20490;-66
2023/05/01 04:25:28;;;;;;;7.70;6.80;;;10.50;99.60;;;;;;6250865;28;20920;-66
2023/05/01 04:28:31;;;;;;;7.80;7.00;;;10.50;99.60;;;;;;6250511;28;20517;-66
2023/05/01 04:31:34;;;;;;;7.23;6.53;;;10.50;99.60;;;;;;6251022;28;20944;-66
2023/05/01 04:34:38;;;;;;;7.37;6.67;;;10.70;99.50;;;;;;6250965;28;20475;-66
2023/05/01 04:37:41;;;;;;;7.60;6.90;;;10.80;99.20;;;;;;6241820;28;20529;-65
2023/05/01 04:40:45;;;;;;;8.27;6.53;;;10.80;99.20;;;;;;6250645;28;20482;-65
2023/05/01 04:43:49;;;;;;;7.33;6.63;;;10.80;99.20;;;;;;6249476;28;20969;-65
2023/05/01 04:46:52;;;;;;;7.40;6.70;;;10.90;99.10;;;;;;6249800;28;20966;-65
2023/05/01 04:49:55;;;;;;;7.93;6.53;;;11.00;99.10;;;;;;6249403;28;20967;-65
2023/05/01 04:52:59;;;;;;;6.90;6.07;;;11.10;99.00;;;;;;6249419;28;21010;-65
2023/05/01 04:56:03;;;;;;;7.67;7.03;;;11.20;98.90;;;;;;6249327;28;20498;-65
2023/05/01 04:59:06;;;;;;;7.53;6.83;;;11.20;98.70;;;;;;6249585;28;20471;-65
2023/05/01 05:02:10;;;;;;;7.23;6.63;;;11.30;98.60;;;;;;6249622;28;20736;-65
2023/05/01 05:05:13;;;;;;;6.63;6.00;;;11.30;98.60;;;;;;6249536;28;20471;-65
2023/05/01 05:08:16;;;;;;;6.80;6.20;;;11.40;98.30;;;;;;6249781;28;20475;-65
2023/05/01 05:11:21;;;;;;;6.90;6.30;;;11.40;98.20;;;;;;6249298;28;20470;-65
2023/05/01 05:14:24;;;;;;;7.17;6.43;;;11.50;98.30;;;;;;6249677;28;20467;-65
2023/05/01 05:17:27;;;;;;;7.07;6.47;;;11.50;98.20;;;;;;6249346;28;20490;-65
2023/05/01 05:20:30;;;;;;;7.03;6.37;;;11.50;97.90;;;;;;6251217;28;21145;-65
2023/05/01 05:23:33;;;;;;;7.10;6.40;;;11.60;98.10;;;;;;6253103;28;20471;-65
2023/05/01 05:26:41;;;;;;;6.83;6.10;;;11.60;98.00;;;;;;6254306;28;20483;-66
2023/05/01 05:29:45;;;;;;;7.10;6.40;;;11.70;98.20;;;;;;6253413;28;20479;-66
2023/05/01 05:32:48;;;;;;;6.53;6.00;;;11.80;98.10;;;;;;6254651;28;20883;-66
2023/05/01 05:35:51;;;;;;;7.70;6.90;;;11.80;97.90;;;;;;6254002;28;20485;-65
2023/05/01 05:38:59;;;;;;;7.60;6.90;;;11.90;97.70;;;;;;6249267;28;20439;-65
2023/05/01 05:42:04;;;;;;;6.53;6.03;;;12.00;97.60;;;;;;6252007;28;20895;-65
2023/05/01 05:45:09;;;;;;;7.27;6.57;;;12.00;97.20;;;;;;6254101;28;20471;-65
2023/05/01 05:48:17;;;;;;;6.73;6.13;;;12.10;97.30;;;;;;6253999;28;20529;-65
2023/05/01 05:51:20;;;;;;;7.10;6.50;;;12.10;97.20;;;;;;6254078;28;20470;-65
2023/05/01 05:54:24;;;;;;;6.17;5.67;;;12.10;97.10;;;;;;6253254;28;20471;-65
2023/05/01 05:57:28;;;;;;;8.10;6.67;;;12.20;97.10;;;;;;6253413;28;20481;-65
2023/05/01 06:00:31;;;;;;;5.97;5.47;;;12.30;96.90;;;;;;6253459;28;20517;-65
2023/05/01 06:03:35;;;;;;;7.13;6.53;;;12.40;96.70;;;;;;6253454;28;20477;-66
2023/05/01 06:06:39;;;;;;;5.73;5.23;;;12.50;96.50;;;;;;6253512;28;20501;-65
2023/05/01 06:09:42;;;;;;;6.60;5.80;;;12.70;96.40;;;;;;6253405;28;20510;-65
2023/05/01 06:12:47;;;;;;;6.17;5.57;;;13.10;96.30;;;;;;6253456;28;20781;-65
2023/05/01 06:16:07;;;;;;;6.53;5.93;;;14.00;96.10;;;;;;6253207;28;20472;-65
2023/05/01 06:19:11;;;;;;;6.07;5.47;;;15.00;93.80;;;;;;6253046;28;20556;-65
2023/05/01 06:22:14;;;;;;;6.90;5.80;;;15.40;92.80;;;;;;6252657;28;20475;-65
2023/05/01 06:25:17;;;;;;;5.47;4.97;;;15.90;92.10;;;;;;6252883;28;20990;-65
2023/05/01 06:28:22;;;;;;;4.90;4.50;;;16.50;90.80;;;;;;6252671;28;20494;-65
2023/05/01 06:31:25;;;;;;;6.07;5.30;;;17.90;87.00;;;;;;6251790;28;20478;-65
2023/05/01 06:34:29;;;;;;;5.77;5.17;;;19.30;82.10;;;;;;6252036;28;20529;-65
2023/05/01 06:37:32;;;;;;;6.00;5.50;;;20.70;75.70;;;;;;6252237;28;20314;-65
2023/05/01 06:40:35;;;;;;;4.80;4.50;;;21.90;69.20;;;;;;6252506;28;20228;-65
2023/05/01 06:43:40;;;;;;;5.37;4.97;;;23.00;63.30;;;;;;6252412;28;20290;-65
2023/05/01 06:46:43;;;;;;;5.70;5.20;;;23.80;58.30;;;;;;6252166;28;20248;-65
2023/05/01 06:49:46;;;;;;;6.30;5.60;;;24.20;56.00;;;;;;6252480;28;20676;-65
2023/05/01 06:52:49;;;;;;;7.80;6.50;;;24.40;52.20;;;;;;6251849;28;20235;-65
2023/05/01 06:55:52;;;;;;;7.43;6.73;;;24.30;50.50;;;;;;6251865;28;20240;-65
2023/05/01 06:58:57;;;;;;;6.43;5.90;;;24.10;49.60;;;;;;6252043;28;20594;-66
2023/05/01 07:02:00;;;;;;;6.90;6.30;;;23.90;49.00;;;;;;6252297;28;20236;-66
2023/05/01 07:05:04;;;;;;;6.50;6.00;;;24.00;48.20;;;;;;6251845;28;20699;-66
2023/05/01 07:08:08;;;;;;;5.37;4.93;;;24.20;48.00;;;;;;6251340;28;20315;-66
2023/05/01 07:11:11;;;;;;;6.43;5.60;;;24.10;47.50;;;;;;6251693;28;20228;-66
2023/05/01 07:14:16;;;;;;;7.90;5.63;;;23.90;47.50;;;;;;6251496;28;20684;-66
2023/05/01 07:17:19;;;;;;;6.27;5.40;;;24.40;47.60;;;;;;6252241;28;20245;-66
2023/05/01 07:20:22;;;;;;;7.70;6.90;;;25.50;45.40;;;;;;6252126;28;20314;-66
2023/05/01 07:23:26;;;;;;;6.73;6.10;;;24.20;43.50;;;;;;6251617;28;20238;-66
2023/05/01 07:26:29;;;;;;;6.60;5.93;;;24.40;43.60;;;;;;6252089;28;20251;-66
2023/05/01 07:29:35;;;;;;;8.63;6.67;;;24.90;43.30;;;;;;6251763;28;20232;-66
2023/05/01 07:32:39;;;;;;;6.30;5.80;;;26.50;40.60;;;;;;6251803;28;20242;-66
2023/05/01 07:35:45;;;;;;;6.63;6.00;;;27.50;38.50;;;;;;6251488;28;20238;-66
2023/05/01 07:38:48;;;;;;;6.37;5.77;;;27.50;36.90;;;;;;6251884;28;20208;-65
2023/05/01 07:41:51;;;;;;;6.80;6.00;;;27.80;36.30;;;;;;6251420;28;20214;-65
2023/05/01 07:44:56;;;;;;;7.03;6.43;;;27.80;36.10;;;;;;6252332;28;20234;-65
2023/05/01 07:47:59;;;;;;;6.10;5.60;;;28.80;35.20;;;;;;6242457;28;20208;-65
2023/05/01 07:51:03;;;;;;;6.17;5.67;;;29.60;33.20;;;;;;6250674;28;20673;-65
2023/05/01 07:54:06;;;;;;;6.40;5.90;;;30.40;31.30;;;;;;6250729;28;20227;-65
2023/05/01 07:57:09;;;;;;;6.50;5.90;;;29.70;31.30;;;;;;6250706;28;20228;-66
2023/05/01 08:00:15;;;;;;;5.90;5.50;;;29.70;31.50;;;;;;6250609;28;20238;-67
2023/05/01 08:03:18;;;;;;;7.47;6.80;;;29.90;31.00;;;;;;6251004;28;20231;-66
2023/05/01 08:06:22;;;;;;;6.80;6.17;;;30.00;30.20;;;;;;6250464;28;20227;-66
2023/05/01 08:09:25;;;;;;;7.03;6.43;;;29.00;31.30;;;;;;6251269;28;20596;-66
2023/05/01 08:12:30;;;;;;;6.33;5.83;;;28.00;32.20;;;;;;6247168;28;20227;-66
2023/05/01 08:15:36;;;;;;;6.90;6.30;;;26.40;34.00;;;;;;6227220;28;20232;-66
2023/05/01 08:18:39;;;;;;;6.07;5.47;;;25.30;36.30;;;;;;6237260;28;20672;-61
2023/05/01 08:21:42;;;;;;;6.03;5.63;;;24.90;37.40;;;;;;6238249;28;20224;-60
2023/05/01 08:24:46;;;;;;;7.00;6.40;;;24.20;38.50;;;;;;6233854;28;20289;-60
2023/05/01 08:27:49;;;;;;;7.67;5.90;;;24.30;38.90;;;;;;6240126;28;20311;-61
2023/05/01 08:30:54;;;;;;;6.00;5.50;;;24.90;38.50;;;;;;6227492;28;20236;-60
2023/05/01 08:33:57;;;;;;;6.40;5.90;;;26.90;37.40;;;;;;6232073;28;20231;-62
2023/05/01 08:37:00;;;;;;;7.90;6.47;;;29.30;33.00;;;;;;6249745;28;20242;-61
2023/05/01 08:40:07;;;;;;;6.57;5.85;;;31.70;30.80;;;;;;6244083;28;20230;-61
2023/05/01 08:43:11;;;;;;;9.40;8.70;;;33.10;28.50;;;;;;6235297;28;20552;-62
2023/05/01 08:46:25;;;;;;;6.10;5.60;;;34.20;27.60;;;;;;6237748;28;20239;-62
2023/05/01 08:49:32;;;;;;;5.97;5.45;;;34.80;26.70;;;;;;6239223;28;20220;-63
2023/05/01 08:52:38;;;;;;;6.57;6.07;;;35.10;25.60;;;;;;6231581;28;20275;-62
2023/05/01 08:55:44;;;;;;;5.72;5.32;;;34.70;25.00;;;;;;6236573;28;20540;-62
2023/05/01 08:58:49;;;;;;;6.90;6.40;;;33.80;25.50;;;;;;6237580;28;20227;-62
2023/05/01 09:01:55;;;;;;;6.75;6.25;;;30.40;27.70;;;;;;6242303;28;20646;-62
2023/05/01 09:05:02;;;;;;;5.90;5.45;;;29.40;29.20;;;;;;6253471;28;20242;-62
2023/05/01 09:08:05;;;;;;;6.17;5.60;;;29.20;29.80;;;;;;6254519;28;20223;-62
2023/05/01 09:11:09;;;;;;;6.80;6.30;;;28.60;30.20;;;;;;6254431;28;20235;-61
2023/05/01 09:14:12;;;;;;;5.90;5.50;;;28.10;30.60;;;;;;6254445;28;20697;-62
2023/05/01 09:17:17;;;;;;;6.73;6.13;;;26.70;33.10;;;;;;6254173;28;20228;-61
2023/05/01 09:20:21;;;;;;;6.50;6.00;;;26.30;33.50;;;;;;6254330;28;20219;-61
2023/05/01 09:23:24;;;;;;;7.13;6.53;;;26.10;34.20;;;;;;6253706;28;20655;-61
2023/05/01 09:26:27;;;;;;;6.33;5.83;;;25.20;35.40;;;;;;6254310;28;20235;-61
2023/05/01 09:29:41;;;;;;;7.03;6.37;;;25.20;36.00;;;;;;6253702;28;20682;-61
2023/05/01 09:32:46;;;;;;;6.27;5.83;;;25.30;36.00;;;;;;6253724;28;20224;-61
2023/05/01 09:35:51;;;;;;;6.13;5.63;;;25.20;35.80;;;;;;6253536;28;20689;-61
2023/05/01 09:38:54;;;;;;;5.30;4.90;;;24.90;36.30;;;;;;6254655;28;20215;-59
2023/05/01 09:41:57;;;;;;;6.60;6.10;;;24.50;37.10;;;;;;6253685;28;20632;-60
2023/05/01 09:45:01;;;;;;;6.23;5.73;;;23.70;38.10;;;;;;6254403;28;20238;-60
2023/05/01 09:48:10;;;;;;;7.30;5.90;;;23.70;38.50;;;;;;6253989;28;20270;-61
2023/05/01 09:51:21;;;;;;;7.00;6.50;;;23.70;38.40;;;;;;6254072;28;20228;-61
2023/05/01 09:54:25;;;;;;;7.13;6.53;;;23.30;38.70;;;;;;6247664;28;20224;-61
2023/05/01 09:57:37;;;;;;;6.00;5.50;;;22.20;40.80;;;;;;6243106;28;20231;-61
2023/05/01 10:00:49;;;;;;;6.27;5.77;;;22.50;41.20;;;;;;6250746;28;20224;-64
2023/05/01 10:03:55;;;;;;;6.03;5.60;;;23.00;40.40;;;;;;6253403;28;20232;-61
2023/05/01 10:07:00;;;;;;;5.40;5.00;;;22.60;41.00;;;;;;6252630;28;20239;-63
2023/05/01 10:10:16;;;;;;;6.00;5.43;;;22.40;40.70;;;;;;6253125;28;20362;-62
2023/05/01 10:13:20;;;;;;;7.20;5.73;;;22.60;40.90;;;;;;6258500;28;20603;-61
2023/05/01 10:16:29;;;;;;;7.60;5.97;;;23.10;41.20;;;;;;6258028;28;20241;-62
2023/05/01 10:19:34;;;;;;;6.23;5.73;;;23.40;40.00;;;;;;6253655;28;20236;-61
2023/05/01 10:22:38;;;;;;;5.53;5.13;;;23.50;40.10;;;;;;6253162;28;20243;-63
2023/05/01 10:25:42;;;;;;;6.07;5.57;;;23.80;39.60;;;;;;6252945;28;20236;-62
2023/05/01 10:28:47;;;;;;;6.83;6.23;;;23.20;39.90;;;;;;6253190;28;20228;-60
2023/05/01 10:31:51;;;;;;;6.23;5.73;;;22.90;40.30;;;;;;6252905;28;20246;-63
2023/05/01 10:34:59;;;;;;;5.27;4.87;;;23.10;40.70;;;;;;6252774;28;20578;-62
2023/05/01 10:38:06;;;;;;;6.83;4.47;;;23.40;40.10;;;;;;6252961;28;20247;-64
2023/05/01 10:41:10;;;;;;;4.90;4.50;;;23.40;39.60;;;;;;6252478;28;20228;-62
2023/05/01 10:44:23;;;;;;;6.33;5.27;;;23.50;39.60;;;;;;6252785;28;20232;-62
2023/05/01 10:47:46;;;;;;;8.60;4.87;;;23.50;39.60;;;;;;6252647;28;20224;-62
2023/05/01 10:51:10;;;;;;;5.83;5.37;;;22.50;40.90;;;;;;6252477;28;20783;-62
2023/05/01 10:54:25;;;;;;;5.43;5.03;;;22.40;41.10;;;;;;6251711;28;20236;-64
2023/05/01 10:57:42;;;;;;;6.07;5.47;;;22.00;41.90;;;;;;6251546;28;20229;-62
2023/05/01 11:01:23;;;;;;;5.63;5.23;;;21.70;42.60;;;;;;6242607;28;20235;-62
2023/05/01 11:04:49;;;;;;;4.20;3.90;;;21.70;42.90;;;;;;6238668;28;20244;-61
2023/05/01 11:08:22;;;;;;;5.03;4.40;;;22.20;41.90;;;;;;6251267;28;20294;-61
2023/05/01 11:11:51;;;;;;;4.27;3.97;;;22.50;41.30;;;;;;6251042;28;20235;-62
2023/05/01 11:15:06;;;;;;;4.83;4.43;;;22.20;40.80;;;;;;6243665;28;20216;-59
2023/05/01 11:18:10;;;;;;;5.50;5.10;;;21.20;42.50;;;;;;6246185;28;20309;-59
2023/05/01 11:21:16;;;;;;;4.70;4.30;;;20.70;43.20;;;;;;6251216;28;20228;-59
2023/05/01 11:24:19;;;;;;;5.17;4.77;;;20.80;43.70;;;;;;6250457;28;20335;-59
2023/05/01 11:27:24;;;;;;;5.00;4.60;;;20.60;43.80;;;;;;6251296;28;20228;-59
2023/05/01 11:30:37;;;;;;;6.20;4.63;;;20.50;44.50;;;;;;6251097;28;20239;-59
2023/05/01 11:33:40;;;;;;;4.80;4.40;;;21.00;44.20;;;;;;6249920;28;20224;-59
2023/05/01 11:36:49;;;;;;;5.97;4.00;;;21.30;43.60;;;;;;6226001;28;20522;-60
2023/05/01 11:39:53;;;;;;;4.40;4.00;;;21.60;43.60;;;;;;6226467;28;20239;-60
2023/05/01 11:43:02;;;;;;;4.40;3.90;;;22.00;42.80;;;;;;6226106;28;20244;-61
2023/05/01 11:46:06;;;;;;;5.40;4.90;;;22.50;42.60;;;;;;6226095;28;20549;-61
2023/05/01 11:49:09;;;;;;;4.30;4.00;;;22.90;41.90;;;;;;6225906;28;20244;-60
2023/05/01 11:52:12;;;;;;;5.00;4.50;;;22.90;41.60;;;;;;6225828;28;20580;-60
2023/05/01 11:55:16;;;;;;;4.80;4.40;;;23.20;41.50;;;;;;6225648;28;20236;-60
2023/05/01 11:58:33;;;;;;;7.37;5.07;;;23.30;41.50;;;;;;6225420;28;20750;-61
2023/05/01 12:01:38;;;;;;;5.00;4.50;;;22.70;42.10;;;;;;6240414;28;20224;-60
2023/05/01 12:04:41;;;;;;;4.47;4.10;;;22.50;42.00;;;;;;6245752;28;20258;-63
2023/05/01 12:07:44;;;;;;;5.93;4.87;;;22.60;42.90;;;;;;6249409;28;20246;-63
2023/05/01 12:10:50;;;;;;;4.60;4.20;;;23.20;42.40;;;;;;6250291;28;20243;-62
2023/05/01 12:13:55;;;;;;;4.90;4.50;;;23.50;41.60;;;;;;6250629;28;20231;-62
2023/05/01 12:16:58;;;;;;;5.03;4.53;;;23.70;41.00;;;;;;6250067;28;20231;-61
2023/05/01 12:20:01;;;;;;;4.03;3.70;;;23.90;40.80;;;;;;6249857;28;20615;-61
2023/05/01 12:23:05;;;;;;;5.30;4.80;;;23.90;41.40;;;;;;6237751;28;20225;-61
2023/05/01 12:26:16;;;;;;;3.97;3.67;;;23.90;40.60;;;;;;6235767;28;20239;-61
2023/05/01 12:29:21;;;;;;;4.30;3.90;;;23.90;39.80;;;;;;6237062;28;20244;-61
2023/05/01 12:32:32;;;;;;;4.33;3.93;;;23.80;39.50;;;;;;6225116;28;20287;-62
2023/05/01 12:35:35;;;;;;;4.47;4.10;;;23.80;39.50;;;;;;6224973;28;20681;-61
2023/05/01 12:38:38;;;;;;;4.83;4.20;;;23.90;39.50;;;;;;6225543;28;20550;-62
2023/05/01 12:41:43;;;;;;;4.87;4.47;;;23.50;39.60;;;;;;6225691;28;20228;-60
2023/05/01 12:44:47;;;;;;;4.13;3.83;;;23.60;39.80;;;;;;6214957;28;20247;-60
2023/05/01 12:47:51;;;;;;;4.53;4.23;;;23.50;39.70;;;;;;6225275;28;20645;-60
2023/05/01 12:50:54;;;;;;;7.90;7.20;;;23.70;39.50;;;;;;6247971;28;20706;-60
2023/05/01 12:53:57;;;;;;;4.90;4.50;;;23.80;39.20;;;;;;6248134;28;20212;-60
2023/05/01 12:57:08;;;;;;;5.70;3.83;;;23.30;39.80;;;;;;6248500;28;20235;-60
2023/05/01 13:00:14;;;;;;;3.73;3.47;;;23.10;40.70;;;;;;6247999;28;20232;-60
2023/05/01 13:03:23;;;;;;;4.77;4.13;;;22.80;41.20;;;;;;6249444;28;20224;-60
2023/05/01 13:06:33;;;;;;;4.40;4.07;;;22.30;41.80;;;;;;6248791;28;20803;-60
2023/05/01 13:09:36;;;;;;;4.70;4.30;;;22.10;42.10;;;;;;6248966;28;20239;-60
2023/05/01 13:12:45;;;;;;;4.13;3.83;;;21.90;42.50;;;;;;6248751;28;20664;-60
2023/05/01 13:15:51;;;;;;;5.13;4.63;;;21.90;43.00;;;;;;6248759;28;20224;-60
2023/05/01 13:18:54;;;;;;;3.83;3.60;;;21.80;43.20;;;;;;6248968;28;20239;-60
2023/05/01 13:21:58;;;;;;;6.43;4.27;;;21.80;43.70;;;;;;6248404;28;20228;-60
2023/05/01 13:25:02;;;;;;;5.17;4.77;;;21.80;44.20;;;;;;6248634;28;20258;-60
2023/05/01 13:28:08;;;;;;;5.40;5.00;;;21.60;44.70;;;;;;6248471;28;20243;-60
2023/05/01 13:31:14;;;;;;;5.40;4.90;;;21.30;44.70;;;;;;6248320;28;20243;-60
2023/05/01 13:34:22;;;;;;;4.37;4.00;;;21.30;45.10;;;;;;6248850;28;20252;-60
2023/05/01 13:37:26;;;;;;;4.53;4.10;;;21.50;45.40;;;;;;6248546;28;20243;-60
2023/05/01 13:40:29;;;;;;;4.60;4.23;;;21.60;45.00;;;;;;6248890;28;20228;-60
2023/05/01 13:43:32;;;;;;;4.30;3.97;;;21.50;45.50;;;;;;6253302;28;20243;-59
2023/05/01 13:46:37;;;;;;;4.67;4.37;;;21.40;45.20;;;;;;6253351;28;20675;-59
2023/05/01 13:49:42;;;;;;;7.37;5.93;;;21.40;45.30;;;;;;6253079;28;20236;-60
2023/05/01 13:52:45;;;;;;;5.37;4.87;;;21.30;45.40;;;;;;6253267;28;20279;-60
2023/05/01 13:55:48;;;;;;;4.77;4.47;;;21.50;45.40;;;;;;6252694;28;20282;-60
2023/05/01 13:58:52;;;;;;;5.03;4.63;;;21.50;45.50;;;;;;6253219;28;20244;-60
2023/05/01 14:01:56;;;;;;;4.77;3.90;;;21.50;45.30;;;;;;6252435;28;20627;-60
2023/05/01 14:04:59;;;;;;;4.57;4.17;;;21.50;45.60;;;;;;6252600;28;20236;-60
2023/05/01 14:08:04;;;;;;;4.33;4.03;;;21.70;45.40;;;;;;6252326;28;20239;-60
2023/05/01 14:11:08;;;;;;;6.63;5.33;;;21.90;44.90;;;;;;6252668;28;20235;-60
2023/05/01 14:14:12;;;;;;;4.53;4.13;;;22.00;44.50;;;;;;6243222;28;20236;-59
2023/05/01 14:17:16;;;;;;;5.43;4.73;;;21.30;45.40;;;;;;6252689;28;20247;-59
2023/05/01 14:20:20;;;;;;;6.50;5.20;;;21.00;46.50;;;;;;6252566;28;20224;-59
2023/05/01 14:23:23;;;;;;;4.30;3.90;;;20.90;46.50;;;;;;6252145;28;20288;-59
2023/05/01 14:26:26;;;;;;;5.10;4.73;;;20.80;46.90;;;;;;6251904;28;20243;-59
2023/05/01 14:29:30;;;;;;;4.20;3.90;;;20.90;47.00;;;;;;6251808;28;20323;-59
2023/05/01 14:32:40;;;;;;;4.63;4.33;;;21.00;47.30;;;;;;6251518;28;20228;-58
2023/05/01 14:35:48;;;;;;;4.03;3.73;;;21.00;47.30;;;;;;6250766;28;20258;-57
2023/05/01 14:38:52;;;;;;;4.20;3.80;;;21.20;47.40;;;;;;6244418;28;20457;-58
2023/05/01 14:41:57;;;;;;;4.83;4.43;;;21.20;47.20;;;;;;6249816;28;20261;-60
2023/05/01 14:45:00;;;;;;;4.37;3.97;;;21.20;47.50;;;;;;6250705;28;20224;-59
2023/05/01 14:48:05;;;;;;;4.40;4.00;;;21.00;47.90;;;;;;6251885;28;20201;-59
2023/05/01 14:51:11;;;;;;;4.50;4.20;;;20.80;48.40;;;;;;6251674;28;20235;-59
2023/05/01 14:54:14;;;;;;;5.27;4.80;;;20.60;48.50;;;;;;6251030;28;20236;-59
2023/05/01 14:57:18;;;;;;;4.50;4.20;;;20.30;48.90;;;;;;6252075;28;20238;-60
2023/05/01 15:00:22;;;;;;;4.50;4.20;;;20.00;49.50;;;;;;6251682;28;20581;-60
2023/05/01 15:03:26;;;;;;;5.07;4.57;;;20.00;49.60;;;;;;6251875;28;20523;-60
2023/05/01 15:06:30;;;;;;;25.83;23.70;;;19.90;49.80;;;;;;6251192;28;20240;-60
2023/05/01 15:09:33;;;;;;;13.77;12.57;;;19.90;50.30;;;;;;6251371;28;20231;-60
2023/05/01 15:12:36;;;;;;;13.23;12.13;;;19.80;50.20;;;;;;6250842;28;20224;-60
2023/05/01 15:15:39;;;;;;;8.37;7.77;;;19.80;50.30;;;;;;6250864;28;20674;-60
2023/05/01 15:18:44;;;;;;;6.10;5.70;;;19.80;50.50;;;;;;6250458;28;20228;-60
2023/05/01 15:21:47;;;;;;;4.97;4.43;;;19.90;50.90;;;;;;6250942;28;20223;-60
2023/05/01 15:24:50;;;;;;;5.80;4.60;;;19.90;50.80;;;;;;6251009;28;20231;-60
2023/05/01 15:27:53;;;;;;;4.60;4.30;;;19.80;50.90;;;;;;6250893;28;20228;-60
2023/05/01 15:30:56;;;;;;;4.87;4.47;;;19.80;51.10;;;;;;6250718;28;20242;-60
2023/05/01 15:34:01;;;;;;;5.83;4.70;;;19.70;51.00;;;;;;6250331;28;20243;-60
2023/05/01 15:37:05;;;;;;;4.27;3.87;;;19.90;51.10;;;;;;6250501;28;20236;-60
2023/05/01 15:40:10;;;;;;;4.63;4.23;;;19.90;51.30;;;;;;6250080;28;20235;-61
2023/05/01 15:43:13;;;;;;;4.60;4.20;;;19.70;51.40;;;;;;6250859;28;20888;-60
2023/05/01 15:46:18;;;;;;;4.70;4.30;;;19.70;51.80;;;;;;6250288;28;20232;-60
2023/05/01 15:49:23;;;;;;;4.47;4.07;;;19.80;51.80;;;;;;6249805;28;20358;-60
2023/05/01 15:52:26;;;;;;;4.93;4.50;;;19.90;51.90;;;;;;6249252;28;20247;-60
2023/05/01 15:55:29;;;;;;;5.27;4.87;;;20.00;51.90;;;;;;6249650;28;20696;-60
2023/05/01 15:58:32;;;;;;;4.30;3.90;;;20.00;52.10;;;;;;6250156;28;20239;-61
2023/05/01 16:01:35;;;;;;;5.47;4.97;;;19.90;51.90;;;;;;6250442;28;20232;-60
2023/05/01 16:04:40;;;;;;;4.97;4.57;;;19.70;52.40;;;;;;6249986;28;20263;-60
2023/05/01 16:07:45;;;;;;;4.70;4.30;;;19.60;53.00;;;;;;6249894;28;20243;-60